Beltnes — V2EG7 — position and weather

sailwx.info

Track history (hours):
 
Tides and Currents Weather Stations Pressure Air Temp Water Temp Dewpoint Dewpoint Depression Visibility Wind Speed Wind Dir Waves Ship Positions

Beltnes

Last reported at 2018-Jan-22 10:16 UTC. Time now 2018-Jan-22 10:43 UTC.
Position N 53°54' E 007°51'.

Length 176 m; draft 10.6 m.

Type: Cargo ship. MMSI: 305426000.

Date/timePositionNaut miles runAvg speedWind from/ knotsBaromVisibWave heightAir tempDewpointWater temp
2018-Jan-22 10:16N 53°54' E 007°51'0 0.3
2018-Jan-22 09:43N 53°54' E 007°51'0 0.0
2018-Jan-22 04:56N 53°54' E 007°51'56 9.5
2018-Jan-21 22:58N 54°42' E 007°01'612.1
2018-Jan-21 22:30N 54°47' E 006°57'612.0
2018-Jan-21 22:00N 54°52' E 006°52'611.9
2018-Jan-21 21:30N 54°58' E 006°49'611.9
2018-Jan-21 20:58N 55°04' E 006°45'511.7
2018-Jan-21 20:30N 55°09' E 006°41'611.6
2018-Jan-21 20:00N 55°14' E 006°37'  
2018-Jan-19 06:00N 66°20' E 011°08'711.3
2018-Jan-19 05:25N 66°26' E 011°14'812.0
2018-Jan-19 04:46N 66°34' E 011°21'311.8
2018-Jan-19 04:30N 66°36' E 011°24'611.8
2018-Jan-19 04:00N 66°42' E 011°30'611.9
2018-Jan-19 03:30N 66°47' E 011°39'611.6
2018-Jan-19 03:00N 66°51' E 011°49'4412.0
2018-Jan-18 23:20N 67°24' E 013°04'412.7
2018-Jan-18 23:00N 67°27' E 013°11'612.4
2018-Jan-18 22:30N 67°32' E 013°22'611.9
2018-Jan-18 22:00N 67°36' E 013°32'611.7
2018-Jan-18 21:30N 67°41' E 013°42'612.3
2018-Jan-18 21:00N 67°45' E 013°53'612.1
2018-Jan-18 20:30N 67°49' E 014°04'612.3
2018-Jan-18 20:00N 67°54' E 014°15'612.3
2018-Jan-18 19:29N 67°58' E 014°28'612.6
2018-Jan-18 19:00N 68°02' E 014°41'612.5
2018-Jan-18 18:30N 68°06' E 014°54'612.9
2018-Jan-18 18:00N 68°09' E 015°09'713.1
2018-Jan-18 17:30N 68°11' E 015°26'612.8
2018-Jan-18 17:00N 68°14' E 015°41'612.9
2018-Jan-18 16:29N 68°19' E 015°54'611.9
2018-Jan-18 16:00N 68°22' E 016°07'713.3
2018-Jan-18 15:29N 68°25' E 016°24'613.0
2018-Jan-18 15:00N 68°26' E 016°41'713.2
2018-Jan-18 14:30N 68°26' E 016°59'713.1
2018-Jan-18 13:58N 68°26' E 017°18'2 4.5
2018-Jan-18 13:29N 68°26' E 017°23'0 0.0
2018-Jan-18 12:59N 68°26' E 017°23'0 0.0
2018-Jan-18 12:29N 68°26' E 017°23'0 0.0
2018-Jan-18 11:59N 68°26' E 017°23'0 0.0
2018-Jan-18 11:29N 68°26' E 017°23'0 0.0
2018-Jan-18 10:59N 68°26' E 017°23'0 0.0
2018-Jan-18 10:29N 68°26' E 017°23'0 0.0
2018-Jan-18 09:59N 68°26' E 017°23'0 0.0
2018-Jan-18 09:29N 68°26' E 017°23'0 0.0
2018-Jan-18 08:59N 68°26' E 017°23'0 0.0
2018-Jan-18 08:29N 68°26' E 017°23'0 0.0
2018-Jan-18 08:00N 68°26' E 017°23'0 0.0
2018-Jan-18 07:29N 68°26' E 017°23'0 0.0
2018-Jan-18 06:59N 68°26' E 017°23'0 0.0
2018-Jan-18 06:29N 68°26' E 017°23'0 0.0
2018-Jan-18 05:59N 68°26' E 017°23'0 0.0
2018-Jan-18 05:29N 68°26' E 017°23'0 0.0
2018-Jan-18 04:59N 68°26' E 017°23'0 0.0
2018-Jan-18 04:29N 68°26' E 017°23'0 0.0
2018-Jan-18 03:59N 68°26' E 017°23'0 0.0
2018-Jan-18 03:29N 68°26' E 017°23'0 0.0
2018-Jan-18 02:59N 68°26' E 017°23'0 0.0
2018-Jan-18 02:29N 68°26' E 017°23'0 0.0
2018-Jan-18 01:59N 68°26' E 017°23'0 0.0
2018-Jan-18 01:29N 68°26' E 017°23'0 0.0
2018-Jan-18 00:59N 68°26' E 017°23'0 0.0
2018-Jan-17 23:59N 68°26' E 017°23'0 0.0
2018-Jan-17 23:56N 68°26' E 017°23'  
2018-Jan-12 15:01N 55°37' E 012°42'713.6
2018-Jan-12 14:31N 55°30' E 012°43'713.4
2018-Jan-12 14:00N 55°23' E 012°41'611.6
2018-Jan-12 13:30N 55°18' E 012°44'714.6
2018-Jan-12 13:00N 55°15' E 012°56'914.7
2018-Jan-12 12:26N 55°15' E 013°10'615.1
2018-Jan-12 12:00N 55°14' E 013°22'814.9
2018-Jan-12 11:28N 55°14' E 013°36'1114.9
2018-Jan-12 10:41N 55°14' E 013°56'314.6
2018-Jan-12 10:29N 55°14' E 014°01'  
Track history (hours):
 
Tides and Currents Weather Stations Pressure Air Temp Water Temp Dewpoint Dewpoint Depression Visibility Wind Speed Wind Dir Waves Ship Positions

Beltnes

Last reported at 2018-Jan-22 10:16 UTC. Time now 2018-Jan-22 10:43 UTC.
Position N 53°54' E 007°51'.

Length 176 m; draft 10.6 m.

Type: Cargo ship. MMSI: 305426000.

Date/timePositionNaut miles runAvg speedWind from/ knotsBaromVisibWave heightAir tempDewpointWater temp
2018-Jan-22 10:16N 53°54' E 007°51'0 0.3
2018-Jan-22 09:43N 53°54' E 007°51'0 0.0
2018-Jan-22 04:56N 53°54' E 007°51'56 9.5
2018-Jan-21 22:58N 54°42' E 007°01'612.1
2018-Jan-21 22:30N 54°47' E 006°57'612.0
2018-Jan-21 22:00N 54°52' E 006°52'611.9
2018-Jan-21 21:30N 54°58' E 006°49'611.9
2018-Jan-21 20:58N 55°04' E 006°45'511.7
2018-Jan-21 20:30N 55°09' E 006°41'611.6
2018-Jan-21 20:00N 55°14' E 006°37'  
2018-Jan-19 06:00N 66°20' E 011°08'711.3
2018-Jan-19 05:25N 66°26' E 011°14'812.0
2018-Jan-19 04:46N 66°34' E 011°21'311.8
2018-Jan-19 04:30N 66°36' E 011°24'611.8
2018-Jan-19 04:00N 66°42' E 011°30'611.9
2018-Jan-19 03:30N 66°47' E 011°39'611.6
2018-Jan-19 03:00N 66°51' E 011°49'4412.0
2018-Jan-18 23:20N 67°24' E 013°04'412.7
2018-Jan-18 23:00N 67°27' E 013°11'612.4
2018-Jan-18 22:30N 67°32' E 013°22'611.9
2018-Jan-18 22:00N 67°36' E 013°32'611.7
2018-Jan-18 21:30N 67°41' E 013°42'612.3
2018-Jan-18 21:00N 67°45' E 013°53'612.1
2018-Jan-18 20:30N 67°49' E 014°04'612.3
2018-Jan-18 20:00N 67°54' E 014°15'612.3
2018-Jan-18 19:29N 67°58' E 014°28'612.6
2018-Jan-18 19:00N 68°02' E 014°41'612.5
2018-Jan-18 18:30N 68°06' E 014°54'612.9
2018-Jan-18 18:00N 68°09' E 015°09'713.1
2018-Jan-18 17:30N 68°11' E 015°26'612.8
2018-Jan-18 17:00N 68°14' E 015°41'612.9
2018-Jan-18 16:29N 68°19' E 015°54'611.9
2018-Jan-18 16:00N 68°22' E 016°07'713.3
2018-Jan-18 15:29N 68°25' E 016°24'613.0
2018-Jan-18 15:00N 68°26' E 016°41'713.2
2018-Jan-18 14:30N 68°26' E 016°59'713.1
2018-Jan-18 13:58N 68°26' E 017°18'2 4.5
2018-Jan-18 13:29N 68°26' E 017°23'0 0.0
2018-Jan-18 12:59N 68°26' E 017°23'0 0.0
2018-Jan-18 12:29N 68°26' E 017°23'0 0.0
2018-Jan-18 11:59N 68°26' E 017°23'0 0.0
2018-Jan-18 11:29N 68°26' E 017°23'0 0.0
2018-Jan-18 10:59N 68°26' E 017°23'0 0.0
2018-Jan-18 10:29N 68°26' E 017°23'0 0.0
2018-Jan-18 09:59N 68°26' E 017°23'0 0.0
2018-Jan-18 09:29N 68°26' E 017°23'0 0.0
2018-Jan-18 08:59N 68°26' E 017°23'0 0.0
2018-Jan-18 08:29N 68°26' E 017°23'0 0.0
2018-Jan-18 08:00N 68°26' E 017°23'0 0.0
2018-Jan-18 07:29N 68°26' E 017°23'0 0.0
2018-Jan-18 06:59N 68°26' E 017°23'0 0.0
2018-Jan-18 06:29N 68°26' E 017°23'0 0.0
2018-Jan-18 05:59N 68°26' E 017°23'0 0.0
2018-Jan-18 05:29N 68°26' E 017°23'0 0.0
2018-Jan-18 04:59N 68°26' E 017°23'0 0.0
2018-Jan-18 04:29N 68°26' E 017°23'0 0.0
2018-Jan-18 03:59N 68°26' E 017°23'0 0.0
2018-Jan-18 03:29N 68°26' E 017°23'0 0.0
2018-Jan-18 02:59N 68°26' E 017°23'0 0.0
2018-Jan-18 02:29N 68°26' E 017°23'0 0.0
2018-Jan-18 01:59N 68°26' E 017°23'0 0.0
2018-Jan-18 01:29N 68°26' E 017°23'0 0.0
2018-Jan-18 00:59N 68°26' E 017°23'0 0.0
2018-Jan-17 23:59N 68°26' E 017°23'0 0.0
2018-Jan-17 23:56N 68°26' E 017°23'  
2018-Jan-12 15:01N 55°37' E 012°42'713.6
2018-Jan-12 14:31N 55°30' E 012°43'713.4
2018-Jan-12 14:00N 55°23' E 012°41'611.6
2018-Jan-12 13:30N 55°18' E 012°44'714.6
2018-Jan-12 13:00N 55°15' E 012°56'914.7
2018-Jan-12 12:26N 55°15' E 013°10'615.1
2018-Jan-12 12:00N 55°14' E 013°22'814.9
2018-Jan-12 11:28N 55°14' E 013°36'1114.9
2018-Jan-12 10:41N 55°14' E 013°56'314.6
2018-Jan-12 10:29N 55°14' E 014°01'  

Dump ship's entire track history